Pagina principale
METAR-TAF:

METAR-TAF

Aeroporti :

Chatham Municipal Airport

Chatham, Massachusetts, Stati Uniti

latitudine: 41-41-15N, longitudine: 069-59-36W, altezza: 20 m

Osservazione

Il bollettino è stato emesso 1 ora e 0 minuti fa, alle 21:52 UTC
Vento 7 kt da nord-est
Temperature 8°C
Umidità 87%
Pressione 1013 hPa
Visibilità: 16.1 km
Nuvoloso ad un'altezza di 2300 ft

METAR: KCQX 232152Z AUTO 04007KT 10SM BKN023 08/06 A2992 RMK AO2 SLP131 T00830056

Ora: 18:52 (22:52 UTC)


TAF: mancante

Osservazioni e previsioni meteorologiche di più di 4000 aeroporti (messaggi METAR e TAF).

Le stazioni disponibili sono rappresentate dai dischi gialli e rossi sulla carta.

Puntare il mouse per vedere il nome della stazione.

Clicca sopra per visualizzare le osservazioni e previsioni meteorologiche.

Per cambiare la mappa : fare clic sui pulsanti verdi con una croce nera per ingrandire, il pulsante verde con un trattino per diminuire, o sulla freccia verde per le mappe adiacenti.


METAR-TAF: